createdAt,value
2022-08-21T00:00:07.927Z,53.96
2022-08-21T00:05:07.829Z,53.98
2022-08-21T00:10:08.600Z,54.02
2022-08-21T00:15:08.576Z,54.05
2022-08-21T00:20:08.322Z,54.11
2022-08-21T00:25:08.031Z,54.13
2022-08-21T00:30:07.775Z,54.15
2022-08-21T00:35:08.522Z,54.2
2022-08-21T00:40:08.286Z,54.21
2022-08-21T00:45:08.073Z,54.21
2022-08-21T00:50:07.825Z,54.27
2022-08-21T00:55:07.722Z,54.29
2022-08-21T01:00:08.321Z,54.31
2022-08-21T01:05:08.012Z,54.35
2022-08-21T01:10:07.723Z,54.37
2022-08-21T01:15:08.423Z,54.39
2022-08-21T01:20:09.537Z,54.44
2022-08-21T01:25:08.224Z,54.44
2022-08-21T01:30:07.897Z,54.46
2022-08-21T01:35:08.603Z,54.49
2022-08-21T01:40:08.532Z,54.51
2022-08-21T01:45:08.254Z,54.55
2022-08-21T01:50:07.980Z,54.54
2022-08-21T01:55:07.688Z,54.55
2022-08-21T02:00:08.395Z,54.59
2022-08-21T02:05:08.107Z,54.61
2022-08-21T02:10:07.829Z,54.63
2022-08-21T02:15:08.581Z,54.65
2022-08-21T02:20:08.307Z,54.67
2022-08-21T02:25:08.014Z,54.69
2022-08-21T02:30:07.709Z,54.72
2022-08-21T02:35:08.385Z,54.73
2022-08-21T02:40:08.111Z,54.75
2022-08-21T02:45:07.810Z,54.77
2022-08-21T02:50:08.537Z,54.79
2022-08-21T02:55:08.232Z,54.81
2022-08-21T03:00:08.027Z,54.83
2022-08-21T03:05:07.731Z,54.84
2022-08-21T03:10:08.400Z,54.88
2022-08-21T03:15:08.109Z,54.9
2022-08-21T03:20:07.807Z,54.89
2022-08-21T03:25:08.548Z,54.89
2022-08-21T03:30:08.122Z,54.91
2022-08-21T03:35:07.811Z,54.92
2022-08-21T03:40:08.620Z,54.92
2022-08-21T03:45:08.362Z,54.96
2022-08-21T03:50:08.072Z,54.98
2022-08-21T03:55:07.818Z,54.98
2022-08-21T04:00:08.530Z,55.0
2022-08-21T04:05:02.484Z,55.01
2022-08-21T04:10:02.348Z,55.01
2022-08-21T04:15:02.292Z,55.06
2022-08-21T04:20:02.290Z,55.04
2022-08-21T04:25:02.113Z,55.05
2022-08-21T04:30:01.891Z,55.07
2022-08-21T04:35:02.713Z,55.11
2022-08-21T04:40:02.608Z,55.12
2022-08-21T04:45:02.500Z,55.11
2022-08-21T04:50:02.474Z,55.12
2022-08-21T04:55:02.242Z,55.15
2022-08-21T05:00:02.074Z,55.14
2022-08-21T05:05:01.850Z,55.15
2022-08-21T05:10:02.681Z,55.15
2022-08-21T05:15:02.526Z,55.16
2022-08-21T05:20:02.273Z,55.16
2022-08-21T05:25:02.141Z,55.18
2022-08-21T05:30:02.014Z,55.17
2022-08-21T05:35:01.861Z,55.2
2022-08-21T05:40:05.137Z,55.19
2022-08-21T05:45:01.934Z,55.19
2022-08-21T05:50:02.724Z,55.17
2022-08-21T05:55:02.676Z,55.17
2022-08-21T06:00:02.658Z,55.16
2022-08-21T06:05:02.861Z,55.12
2022-08-21T06:10:02.807Z,55.07
2022-08-21T06:15:02.741Z,55.06
2022-08-21T06:20:02.739Z,55.02
2022-08-21T06:25:02.738Z,54.95
2022-08-21T06:30:02.829Z,54.88
2022-08-21T06:35:02.839Z,54.86
2022-08-21T06:40:02.877Z,54.77
2022-08-21T06:45:01.846Z,54.73
2022-08-21T06:50:02.686Z,54.66
2022-08-21T06:55:02.609Z,54.63
2022-08-21T07:00:02.552Z,54.6
2022-08-21T07:05:11.793Z,54.5
2022-08-21T07:10:02.159Z,54.46
2022-08-21T07:15:02.110Z,54.42
2022-08-21T07:20:01.917Z,54.43
2022-08-21T07:25:02.779Z,54.48
2022-08-21T07:30:02.540Z,54.54
2022-08-21T07:35:02.426Z,54.51
2022-08-21T07:40:02.341Z,54.56
2022-08-21T07:45:02.232Z,54.57
2022-08-21T07:50:01.990Z,54.63
2022-08-21T07:55:06.081Z,54.58
2022-08-21T08:00:02.513Z,54.61
2022-08-21T08:05:02.340Z,54.59
2022-08-21T08:10:02.214Z,54.59
2022-08-21T08:15:02.168Z,54.56
2022-08-21T08:20:02.046Z,54.53
2022-08-21T08:25:04.268Z,54.47
2022-08-21T08:30:02.295Z,54.39
2022-08-21T08:35:02.133Z,54.38
2022-08-21T08:40:02.153Z,54.32
2022-08-21T08:45:02.623Z,54.27
2022-08-21T08:50:02.548Z,54.22
2022-08-21T08:55:02.534Z,54.18
2022-08-21T09:00:02.698Z,54.18
2022-08-21T09:05:02.674Z,54.2
2022-08-21T09:10:02.825Z,54.16
2022-08-21T09:15:01.942Z,54.14
2022-08-21T09:20:11.944Z,54.13
2022-08-21T09:25:02.959Z,54.13
2022-08-21T09:30:01.742Z,54.04
2022-08-21T09:35:02.679Z,53.98
2022-08-21T09:40:02.577Z,53.92
2022-08-21T09:45:02.421Z,53.87
2022-08-21T09:50:02.190Z,53.76
2022-08-21T09:55:12.115Z,53.7
2022-08-21T10:00:02.656Z,53.6
2022-08-21T10:05:02.420Z,53.55
2022-08-21T10:10:02.262Z,53.47
2022-08-21T10:15:05.281Z,53.41
2022-08-21T10:20:12.445Z,53.27
2022-08-21T10:25:02.288Z,53.27
2022-08-21T10:30:02.191Z,53.08
2022-08-21T10:35:02.049Z,53.02
2022-08-21T10:40:01.835Z,52.86
2022-08-21T10:45:02.778Z,52.92
2022-08-21T10:50:02.599Z,52.87
2022-08-21T10:55:02.382Z,52.87
2022-08-21T11:00:01.865Z,52.78
2022-08-21T11:05:02.749Z,52.74
2022-08-21T11:10:02.665Z,52.68
2022-08-21T11:15:02.059Z,52.68
2022-08-21T11:20:01.907Z,52.57
2022-08-21T11:25:02.856Z,52.5
2022-08-21T11:30:03.078Z,52.42
2022-08-21T11:35:02.059Z,52.39
2022-08-21T11:40:02.116Z,52.29
2022-08-21T11:45:02.157Z,52.24
2022-08-21T11:50:02.170Z,52.14
2022-08-21T11:55:02.115Z,52.11
2022-08-21T12:00:02.017Z,52.04
2022-08-21T12:05:08.385Z,51.95
2022-08-21T12:10:01.778Z,51.85
2022-08-21T12:15:12.616Z,51.73
2022-08-21T12:20:02.404Z,51.6
2022-08-21T12:25:02.222Z,51.53
2022-08-21T12:30:02.040Z,51.41
2022-08-21T12:35:01.966Z,51.35
2022-08-21T12:40:01.945Z,51.23
2022-08-21T12:45:01.877Z,51.19
2022-08-21T12:50:02.729Z,51.13
2022-08-21T12:55:02.634Z,51.1
2022-08-21T13:00:02.501Z,50.93
2022-08-21T13:05:02.367Z,50.89
2022-08-21T13:10:02.187Z,50.84
2022-08-21T13:15:02.242Z,50.77
2022-08-21T13:20:08.156Z,50.68
2022-08-21T13:25:02.365Z,50.61
2022-08-21T13:30:02.144Z,50.53
2022-08-21T13:35:02.024Z,50.43
2022-08-21T13:40:02.045Z,50.31
2022-08-21T13:45:02.053Z,50.28
2022-08-21T13:50:01.928Z,50.16
2022-08-21T13:55:01.852Z,50.14
2022-08-21T14:00:02.740Z,49.98
2022-08-21T14:05:02.820Z,49.85
2022-08-21T14:10:02.992Z,49.83
2022-08-21T14:15:02.021Z,49.73
2022-08-21T14:20:01.945Z,49.66
2022-08-21T14:25:02.979Z,49.59
2022-08-21T14:30:02.238Z,49.58
2022-08-21T14:35:02.528Z,49.56
2022-08-21T14:40:02.681Z,49.46
2022-08-21T14:45:02.653Z,49.46
2022-08-21T14:50:02.647Z,49.5
2022-08-21T14:55:02.483Z,49.46
2022-08-21T15:00:02.430Z,49.43
2022-08-21T15:05:02.295Z,49.42
2022-08-21T15:10:02.147Z,49.36
2022-08-21T15:15:01.953Z,49.35
2022-08-21T15:20:01.749Z,49.34
2022-08-21T15:25:02.626Z,49.32
2022-08-21T15:30:02.444Z,49.33
2022-08-21T15:35:02.250Z,49.33
2022-08-21T15:40:02.214Z,49.31
2022-08-21T15:45:02.141Z,49.29
2022-08-21T15:50:02.029Z,49.31
2022-08-21T15:55:01.866Z,49.31
2022-08-21T16:00:02.653Z,49.36
2022-08-21T16:05:02.611Z,49.35
2022-08-21T16:10:02.410Z,49.32
2022-08-21T16:15:02.153Z,49.33
2022-08-21T16:20:02.024Z,49.33
2022-08-21T16:25:01.783Z,49.32
2022-08-21T16:30:01.934Z,49.33
2022-08-21T16:35:02.662Z,49.32
2022-08-21T16:40:02.426Z,49.39
2022-08-21T16:45:02.343Z,49.34
2022-08-21T16:50:02.312Z,49.36
2022-08-21T16:55:02.383Z,49.35
2022-08-21T17:00:02.352Z,49.37
2022-08-21T17:05:02.290Z,49.38
2022-08-21T17:10:02.355Z,49.45
2022-08-21T17:15:02.914Z,49.44
2022-08-21T17:20:02.864Z,49.45
2022-08-21T17:25:02.895Z,49.44
2022-08-21T17:30:02.967Z,49.46
2022-08-21T17:35:01.794Z,49.47
2022-08-21T17:40:02.814Z,49.51
2022-08-21T17:45:01.799Z,49.53
2022-08-21T17:50:03.043Z,49.53
2022-08-21T17:55:02.000Z,49.57
2022-08-21T18:00:01.962Z,49.6
2022-08-21T18:05:04.410Z,49.63
2022-08-21T18:10:02.298Z,49.64
2022-08-21T18:15:02.150Z,49.67
2022-08-21T18:20:02.039Z,49.7
2022-08-21T18:25:01.847Z,49.75
2022-08-21T18:30:02.924Z,49.79
2022-08-21T18:35:02.839Z,49.82
2022-08-21T18:40:02.784Z,49.86
2022-08-21T18:45:02.714Z,49.92
2022-08-21T18:50:02.538Z,49.96
2022-08-21T18:55:06.238Z,50.03
2022-08-21T19:00:02.037Z,50.03
2022-08-21T19:05:02.065Z,50.1
2022-08-21T19:10:27.859Z,50.15
2022-08-21T19:15:01.785Z,50.19
2022-08-21T19:20:02.783Z,50.21
2022-08-21T19:25:02.752Z,50.26
2022-08-21T19:30:02.554Z,50.3
2022-08-21T19:35:02.564Z,50.36
2022-08-21T19:40:02.455Z,50.36
2022-08-21T19:45:02.327Z,50.47
2022-08-21T19:50:03.232Z,50.49
2022-08-21T19:55:02.305Z,50.55
2022-08-21T20:00:02.248Z,50.61
2022-08-21T20:05:02.354Z,50.63
2022-08-21T20:10:02.307Z,50.7
2022-08-21T20:15:02.267Z,50.75
2022-08-21T20:20:02.111Z,50.78
2022-08-21T20:25:02.245Z,50.84
2022-08-21T20:30:02.100Z,50.89
2022-08-21T20:35:02.033Z,50.92
2022-08-21T20:40:02.225Z,50.97
2022-08-21T20:45:02.730Z,51.02
2022-08-21T20:50:02.075Z,51.06
2022-08-21T20:55:02.567Z,51.14
2022-08-21T21:00:08.075Z,51.18
2022-08-21T21:05:02.140Z,51.2
2022-08-21T21:10:02.168Z,51.24
2022-08-21T21:15:02.511Z,51.27
2022-08-21T21:20:02.516Z,51.31
2022-08-21T21:25:02.289Z,51.34
2022-08-21T21:30:02.327Z,51.36
2022-08-21T21:35:32.703Z,51.42
2022-08-21T21:40:08.201Z,51.43
2022-08-21T21:45:07.939Z,51.47
2022-08-21T21:50:08.664Z,51.49
2022-08-21T21:55:08.537Z,51.53
2022-08-21T22:00:08.298Z,51.56
2022-08-21T22:05:08.035Z,51.58
2022-08-21T22:15:07.729Z,51.63
2022-08-21T22:20:18.404Z,51.67
2022-08-21T22:25:08.077Z,51.68
2022-08-21T22:30:07.966Z,51.71
2022-08-21T22:40:07.905Z,51.78
2022-08-21T22:45:12.252Z,51.86
2022-08-21T22:50:08.228Z,51.85
2022-08-21T22:55:07.657Z,51.87
2022-08-21T23:01:00.872Z,51.91
2022-08-21T23:10:08.001Z,51.95
2022-08-21T23:15:08.028Z,51.99
2022-08-21T23:20:07.744Z,52.02
2022-08-21T23:25:08.470Z,52.05
2022-08-21T23:30:08.585Z,52.11
2022-08-21T23:35:08.290Z,52.09
2022-08-21T23:40:08.554Z,52.13
2022-08-21T23:45:17.999Z,52.16
2022-08-21T23:50:14.142Z,52.16
2022-08-21T23:55:08.335Z,52.2
